createdAt,value
2022-11-09T00:03:12.557Z,96038.78
2022-11-09T00:07:24.817Z,96033.81
2022-11-09T00:11:38.666Z,96046.50
2022-11-09T00:15:51.143Z,96040.69
2022-11-09T00:20:03.508Z,96038.72
2022-11-09T00:24:15.913Z,96046.94
2022-11-09T00:28:28.217Z,96054.63
2022-11-09T00:32:40.582Z,96039.78
2022-11-09T00:36:52.843Z,96039.84
2022-11-09T00:41:06.211Z,96035.66
2022-11-09T00:45:18.494Z,96047.38
2022-11-09T00:49:30.743Z,96038.06
2022-11-09T00:53:43.637Z,96040.13
2022-11-09T00:57:55.902Z,96021.41
2022-11-09T01:02:08.265Z,96027.59
2022-11-09T01:06:23.982Z,96033.53
2022-11-09T01:10:36.295Z,96033.13
2022-11-09T01:14:48.544Z,96029.69
2022-11-09T01:19:00.905Z,96026.97
2022-11-09T01:23:15.133Z,96033.72
2022-11-09T01:27:27.519Z,96035.34
2022-11-09T01:31:39.787Z,96030.13
2022-11-09T01:35:52.050Z,96029.00
2022-11-09T01:40:04.609Z,96028.34
2022-11-09T01:44:21.217Z,96019.97
2022-11-09T01:48:39.586Z,96034.06
2022-11-09T01:52:52.397Z,96023.63
2022-11-09T01:57:08.947Z,96027.91
2022-11-09T02:01:21.951Z,96030.38
2022-11-09T02:05:36.703Z,96032.09
2022-11-09T02:10:07.105Z,96021.81
2022-11-09T02:14:23.272Z,96018.66
2022-11-09T02:18:37.234Z,96014.06
2022-11-09T02:22:49.620Z,96023.19
2022-11-09T02:27:01.960Z,96023.25
2022-11-09T02:31:18.270Z,96016.44
2022-11-09T02:35:30.551Z,96017.72
2022-11-09T02:39:42.942Z,96014.16
2022-11-09T02:43:56.029Z,96009.16
2022-11-09T02:48:08.298Z,96013.13
2022-11-09T02:52:20.631Z,96014.03
2022-11-09T02:56:32.954Z,96017.13
2022-11-09T03:00:48.370Z,96022.06
2022-11-09T03:05:00.635Z,96017.19
2022-11-09T03:09:13.846Z,96024.47
2022-11-09T03:13:26.129Z,96011.50
2022-11-09T03:17:38.915Z,96008.50
2022-11-09T03:21:51.192Z,96012.81
2022-11-09T03:26:03.614Z,96011.78
2022-11-09T03:30:16.656Z,96016.13
2022-11-09T03:34:28.941Z,96015.28
2022-11-09T03:38:41.268Z,96012.94
2022-11-09T03:42:53.532Z,96021.81
2022-11-09T03:47:05.834Z,96013.28
2022-11-09T03:51:18.086Z,96023.44
2022-11-09T03:55:30.385Z,96000.63
2022-11-09T03:59:42.846Z,96006.06
2022-11-09T04:03:55.174Z,96020.56
2022-11-09T04:08:08.154Z,96007.03
2022-11-09T04:12:23.143Z,96010.31
2022-11-09T04:16:35.450Z,96004.69
2022-11-09T04:20:47.714Z,96003.25
2022-11-09T04:25:00.422Z,96005.53
2022-11-09T04:29:12.763Z,96000.41
2022-11-09T04:33:31.062Z,96003.59
2022-11-09T04:37:43.892Z,96009.25
2022-11-09T04:41:56.147Z,96009.66
2022-11-09T04:46:08.490Z,96016.94
2022-11-09T04:50:21.599Z,96024.28
2022-11-09T04:54:43.932Z,96013.63
2022-11-09T04:58:56.186Z,96003.88
2022-11-09T05:03:10.546Z,96025.47
2022-11-09T05:07:22.806Z,96029.66
2022-11-09T05:11:36.417Z,96016.84
2022-11-09T05:15:48.709Z,96023.09
2022-11-09T05:20:01.039Z,96027.72
2022-11-09T05:24:18.155Z,96030.94
2022-11-09T05:28:30.412Z,96042.69
2022-11-09T05:32:42.676Z,96015.31
2022-11-09T05:36:58.148Z,96019.16
2022-11-09T05:41:13.398Z,96013.28
2022-11-09T05:45:43.655Z,96007.56
2022-11-09T05:49:56.426Z,96018.84
2022-11-09T05:54:09.842Z,96012.94
2022-11-09T05:58:22.154Z,96023.53
2022-11-09T06:02:35.436Z,96024.81
2022-11-09T06:06:47.896Z,96025.34
2022-11-09T06:11:02.022Z,96029.19
2022-11-09T06:15:14.326Z,96040.47
2022-11-09T06:19:26.627Z,96045.09
2022-11-09T06:23:38.974Z,96046.59
2022-11-09T06:27:51.585Z,96081.56
2022-11-09T06:32:03.910Z,96088.28
2022-11-09T06:36:16.653Z,96091.44
2022-11-09T06:40:29.768Z,96088.63
2022-11-09T06:44:50.719Z,96113.84
2022-11-09T06:49:13.067Z,96135.28
2022-11-09T06:53:28.537Z,96145.41
2022-11-09T06:57:41.009Z,96158.28
2022-11-09T07:01:56.371Z,96166.28
2022-11-09T07:06:13.566Z,96167.47
2022-11-09T07:10:25.920Z,96153.66
2022-11-09T07:14:38.182Z,96174.75
2022-11-09T07:18:50.445Z,96172.22
2022-11-09T07:23:02.737Z,96184.78
2022-11-09T07:27:15.023Z,96187.00
2022-11-09T07:31:30.084Z,96179.94
2022-11-09T07:35:42.786Z,96173.03
2022-11-09T07:39:55.152Z,96175.13
2022-11-09T07:44:07.398Z,96171.66
2022-11-09T07:48:19.802Z,96165.88
2022-11-09T07:52:32.159Z,96155.97
2022-11-09T07:56:44.527Z,96163.00
2022-11-09T08:00:57.936Z,96160.16
2022-11-09T08:05:10.243Z,96162.56
2022-11-09T08:09:22.516Z,96166.84
2022-11-09T08:13:35.060Z,96167.06
2022-11-09T08:17:47.395Z,96178.69
2022-11-09T08:22:00.876Z,96184.25
2022-11-09T08:26:13.515Z,96186.16
2022-11-09T08:30:26.100Z,96183.69
2022-11-09T08:34:38.450Z,96179.97
2022-11-09T08:38:50.703Z,96181.59
2022-11-09T08:43:05.356Z,96181.47
2022-11-09T08:47:17.625Z,96189.66
2022-11-09T08:51:29.903Z,96198.22
2022-11-09T08:55:45.799Z,96199.47
2022-11-09T09:00:00.776Z,96196.75
2022-11-09T09:04:13.849Z,96204.84
2022-11-09T09:08:26.702Z,96212.19
2022-11-09T09:12:39.350Z,96208.91
2022-11-09T09:16:52.832Z,96202.22
2022-11-09T09:21:10.229Z,96201.59
2022-11-09T09:25:22.494Z,96214.94
2022-11-09T09:29:35.453Z,96220.44
2022-11-09T09:33:57.509Z,96226.28
2022-11-09T09:38:09.958Z,96221.88
2022-11-09T09:42:29.092Z,96208.03
2022-11-09T09:46:44.118Z,96214.72
2022-11-09T09:51:03.433Z,96206.50
2022-11-09T09:55:19.798Z,96212.16
2022-11-09T09:59:43.863Z,96216.69
2022-11-09T10:03:57.393Z,96211.00
2022-11-09T10:08:32.721Z,96214.06
2022-11-09T10:13:22.632Z,96200.13
2022-11-09T10:17:53.631Z,96205.38
2022-11-09T10:22:34.902Z,96216.78
2022-11-09T10:26:53.417Z,96213.25
2022-11-09T10:31:19.719Z,96206.91
2022-11-09T10:36:03.865Z,96207.16
2022-11-09T10:40:32.239Z,96193.19
2022-11-09T10:44:44.526Z,96190.88
2022-11-09T10:48:57.394Z,96183.88
2022-11-09T10:53:21.124Z,96179.41
2022-11-09T10:57:33.475Z,96170.84
2022-11-09T11:01:45.968Z,96169.81
2022-11-09T11:06:03.934Z,96162.63
2022-11-09T11:10:16.161Z,96158.00
2022-11-09T11:14:44.304Z,96164.69
2022-11-09T11:18:56.768Z,96154.47
2022-11-09T11:23:16.493Z,96151.72
2022-11-09T11:27:38.002Z,96143.56
2022-11-09T11:31:50.316Z,96133.41
2022-11-09T11:36:08.941Z,96133.47
2022-11-09T11:40:37.804Z,96137.84
2022-11-09T11:45:07.140Z,96124.50
2022-11-09T11:49:45.501Z,96139.16
2022-11-09T11:54:27.689Z,96143.06
2022-11-09T11:58:48.785Z,96145.03
2022-11-09T12:03:26.494Z,96124.94
2022-11-09T12:08:14.365Z,96120.31
2022-11-09T12:12:40.926Z,96116.69
2022-11-09T12:17:02.346Z,96112.38
2022-11-09T12:21:38.171Z,96116.84
2022-11-09T12:26:02.658Z,96120.94
2022-11-09T12:30:22.198Z,96113.09
2022-11-09T12:34:50.321Z,96110.09
2022-11-09T12:39:19.452Z,96103.16
2022-11-09T12:43:43.938Z,96102.41
2022-11-09T12:48:05.782Z,96102.97
2022-11-09T12:52:23.316Z,96097.84
2022-11-09T12:56:41.601Z,96084.31
2022-11-09T13:00:57.625Z,96084.09
2022-11-09T13:05:33.018Z,96080.28
2022-11-09T13:09:45.675Z,96065.31
2022-11-09T13:14:22.876Z,96083.06
2022-11-09T13:18:42.904Z,96075.97
2022-11-09T13:22:59.930Z,96073.94
2022-11-09T13:27:31.204Z,96071.19
2022-11-09T13:32:11.588Z,96074.94
2022-11-09T13:36:24.034Z,96064.81
2022-11-09T13:40:56.997Z,96064.56
2022-11-09T13:45:25.689Z,96067.13
2022-11-09T13:49:45.485Z,96061.50
2022-11-09T13:54:00.611Z,96071.38
2022-11-09T13:58:21.999Z,96068.84
2022-11-09T14:02:34.633Z,96073.66
2022-11-09T14:06:46.965Z,96078.25
2022-11-09T14:11:04.986Z,96075.94
2022-11-09T14:15:54.288Z,96083.53
2022-11-09T14:20:35.930Z,96076.38
2022-11-09T14:24:48.290Z,96093.13
2022-11-09T14:29:00.631Z,96088.47
2022-11-09T14:33:23.705Z,96091.25
2022-11-09T14:37:37.259Z,96085.56
2022-11-09T14:41:50.394Z,96089.06
2022-11-09T14:46:04.794Z,96087.28
2022-11-09T14:50:30.275Z,96088.41
2022-11-09T14:54:45.609Z,96093.63
2022-11-09T14:58:58.929Z,96090.78
2022-11-09T15:03:29.359Z,96093.69
2022-11-09T15:07:45.884Z,96091.75
2022-11-09T15:11:58.307Z,96095.13
2022-11-09T15:16:22.065Z,96092.25
2022-11-09T15:20:35.429Z,96103.31
2022-11-09T15:24:49.081Z,96097.56
2022-11-09T15:29:01.783Z,96102.47
2022-11-09T15:33:22.192Z,96099.38
2022-11-09T15:37:43.633Z,96099.91
2022-11-09T15:41:56.236Z,96106.63
2022-11-09T15:46:08.667Z,96107.78
2022-11-09T15:50:24.498Z,96110.75
2022-11-09T15:54:36.766Z,96109.69
2022-11-09T15:58:54.215Z,96105.31
2022-11-09T16:03:06.590Z,96115.13
2022-11-09T16:07:18.932Z,96130.03
2022-11-09T16:11:31.261Z,96132.31
2022-11-09T16:15:50.992Z,96140.13
2022-11-09T16:20:03.300Z,96145.69
2022-11-09T16:24:17.056Z,96138.31
2022-11-09T16:28:29.414Z,96157.00
2022-11-09T16:32:41.791Z,96159.00
2022-11-09T16:37:00.233Z,96161.66
2022-11-09T16:41:14.719Z,96166.25
2022-11-09T16:45:32.100Z,96178.09
2022-11-09T16:49:45.792Z,96187.56
2022-11-09T16:53:58.126Z,96184.97
2022-11-09T16:58:10.517Z,96194.03
2022-11-09T17:02:25.711Z,96201.69
2022-11-09T17:06:38.130Z,96204.66
2022-11-09T17:10:50.475Z,96199.75
2022-11-09T17:15:02.831Z,96216.84
2022-11-09T17:19:15.157Z,96216.72
2022-11-09T17:23:27.518Z,96226.72
2022-11-09T17:27:39.866Z,96240.53
2022-11-09T17:31:52.264Z,96245.50
2022-11-09T17:36:07.785Z,96256.91
2022-11-09T17:40:22.100Z,96258.44
2022-11-09T17:44:37.591Z,96255.03
2022-11-09T17:48:51.754Z,96266.56
2022-11-09T17:53:04.125Z,96274.69
2022-11-09T17:57:16.466Z,96270.56
2022-11-09T18:01:29.086Z,96279.41
2022-11-09T18:05:43.261Z,96280.66
2022-11-09T18:09:55.592Z,96284.81
2022-11-09T18:14:07.912Z,96292.81
2022-11-09T18:18:21.280Z,96286.38
2022-11-09T18:22:33.790Z,96294.75
2022-11-09T18:26:46.075Z,96303.44
2022-11-09T18:31:11.073Z,96304.66
2022-11-09T18:35:25.087Z,96296.69
2022-11-09T18:39:37.332Z,96302.38
2022-11-09T18:43:50.838Z,96299.94
2022-11-09T18:48:03.348Z,96313.53
2022-11-09T18:52:16.379Z,96316.31
2022-11-09T18:56:28.736Z,96324.50
2022-11-09T19:00:41.156Z,96320.97
2022-11-09T19:04:53.426Z,96319.56
2022-11-09T19:09:24.346Z,96326.81
2022-11-09T19:13:45.236Z,96330.19
2022-11-09T19:17:57.699Z,96331.47
2022-11-09T19:22:18.940Z,96348.31
2022-11-09T19:26:31.516Z,96353.56
2022-11-09T19:30:43.761Z,96354.31
2022-11-09T19:34:56.030Z,96360.59
2022-11-09T19:39:08.374Z,96362.16
2022-11-09T19:43:21.078Z,96355.88
2022-11-09T19:47:33.558Z,96371.19
2022-11-09T19:51:53.549Z,96367.03
2022-11-09T19:56:09.171Z,96369.34
2022-11-09T20:00:21.466Z,96373.00
2022-11-09T20:04:33.923Z,96374.72
2022-11-09T20:08:46.528Z,96374.91
2022-11-09T20:12:59.361Z,96380.72
2022-11-09T20:17:12.124Z,96389.50
2022-11-09T20:21:24.418Z,96383.03
2022-11-09T20:25:37.220Z,96388.56
2022-11-09T20:29:49.557Z,96390.88
2022-11-09T20:34:03.178Z,96399.19
2022-11-09T20:38:15.452Z,96395.47
2022-11-09T20:42:27.734Z,96400.09
2022-11-09T20:46:40.047Z,96408.88
2022-11-09T20:50:52.329Z,96408.22
2022-11-09T20:55:05.127Z,96406.72
2022-11-09T20:59:17.512Z,96416.84
2022-11-09T21:03:30.818Z,96423.63
2022-11-09T21:07:43.189Z,96421.16
2022-11-09T21:12:13.905Z,96427.78
2022-11-09T21:16:26.266Z,96430.88
2022-11-09T21:20:39.328Z,96439.63
2022-11-09T21:25:10.315Z,96439.31
2022-11-09T21:29:43.720Z,96442.09
2022-11-09T21:33:56.044Z,96449.44
2022-11-09T21:38:08.315Z,96457.72
2022-11-09T21:42:20.634Z,96458.03
2022-11-09T21:46:33.034Z,96460.66
2022-11-09T21:50:45.290Z,96466.34
2022-11-09T21:55:07.522Z,96469.72
2022-11-09T21:59:19.926Z,96470.03
2022-11-09T22:03:34.248Z,96476.00
2022-11-09T22:07:46.524Z,96485.25
2022-11-09T22:12:17.286Z,96483.09
2022-11-09T22:16:34.766Z,96489.09
2022-11-09T22:20:55.830Z,96497.38
2022-11-09T22:25:08.848Z,96498.28
2022-11-09T22:29:21.121Z,96508.44
2022-11-09T22:33:34.300Z,96510.56
2022-11-09T22:37:46.688Z,96507.81
2022-11-09T22:41:58.994Z,96526.09
2022-11-09T22:46:17.378Z,96524.28
2022-11-09T22:50:29.663Z,96524.41
2022-11-09T22:54:41.963Z,96531.78
2022-11-09T22:58:54.276Z,96533.63
2022-11-09T23:03:06.558Z,96535.94
2022-11-09T23:07:18.896Z,96540.25
2022-11-09T23:11:31.199Z,96548.38
2022-11-09T23:15:43.472Z,96544.22
2022-11-09T23:19:55.727Z,96553.59
2022-11-09T23:24:28.689Z,96565.25
2022-11-09T23:28:41.042Z,96556.03
2022-11-09T23:32:53.404Z,96547.28
2022-11-09T23:37:06.166Z,96555.72
2022-11-09T23:41:28.427Z,96563.72
2022-11-09T23:45:41.778Z,96560.97
2022-11-09T23:49:54.159Z,96563.56
2022-11-09T23:54:06.526Z,96563.41
2022-11-09T23:58:18.790Z,96565.41
